Time;durP1;ratioP1;P1;durP2;ratioP2;P2;SDS_P1;SDS_P2;PMS_P1;PMS_P2;Temp;Humidity;BMP_temperature;BMP_pressure;BME280_temperature;BME280_humidity;BME280_pressure;Samples;Min_cycle;Max_cycle;Signal;HPM_P1;HPM_P2
2024/01/06 00:04:04;;;;;;;11.40;6.10;;;;;;;;;;10230589;28;20267;-69
2024/01/06 00:09:06;;;;;;;9.93;6.03;;;;;;;;;;10230177;28;22573;-69
2024/01/06 00:14:07;;;;;;;11.25;6.13;;;;;;;;;;10237733;28;21368;-69
2024/01/06 00:19:08;;;;;;;9.73;6.15;;;;;;;;;;10241851;28;20276;-69
2024/01/06 00:24:09;;;;;;;11.43;6.45;;;;;;;;;;10230981;28;20186;-69
2024/01/06 00:29:10;;;;;;;11.35;6.15;;;;;;;;;;10234754;28;20594;-69
2024/01/06 00:34:11;;;;;;;10.10;5.85;;;;;;;;;;10228863;28;20434;-69
2024/01/06 00:39:12;;;;;;;12.65;6.40;;;;;;;;;;10230344;28;20193;-69
2024/01/06 00:44:13;;;;;;;14.95;6.07;;;;;;;;;;10231725;28;20724;-69
2024/01/06 00:49:14;;;;;;;17.05;7.88;;;;;;;;;;10231738;28;20196;-70
2024/01/06 00:54:15;;;;;;;11.35;5.90;;;;;;;;;;10224898;28;20441;-69
2024/01/06 00:59:16;;;;;;;12.15;7.03;;;;;;;;;;10243741;28;20538;-69
2024/01/06 01:04:17;;;;;;;15.02;6.88;;;;;;;;;;10226908;28;20214;-69
2024/01/06 01:09:18;;;;;;;9.65;5.93;;;;;;;;;;10228075;28;20197;-69
2024/01/06 01:14:19;;;;;;;19.13;9.10;;;;;;;;;;10226070;28;20562;-69
2024/01/06 01:19:20;;;;;;;25.27;9.75;;;;;;;;;;10220520;28;20202;-69
2024/01/06 01:24:21;;;;;;;32.72;11.82;;;;;;;;;;10258638;28;20963;-69
2024/01/06 01:29:22;;;;;;;27.48;9.32;;;;;;;;;;10226985;28;20225;-69
2024/01/06 01:34:23;;;;;;;28.65;9.63;;;;;;;;;;10227871;28;20442;-69
2024/01/06 01:39:24;;;;;;;26.80;10.02;;;;;;;;;;10214606;28;20656;-69
2024/01/06 01:44:25;;;;;;;33.05;10.35;;;;;;;;;;10235383;28;20418;-68
2024/01/06 01:49:26;;;;;;;33.00;8.70;;;;;;;;;;10264982;28;20209;-69
2024/01/06 01:54:27;;;;;;;29.52;9.10;;;;;;;;;;10235599;28;20190;-68
2024/01/06 01:59:28;;;;;;;25.55;9.18;;;;;;;;;;10235149;28;20206;-69
2024/01/06 02:04:29;;;;;;;23.67;9.52;;;;;;;;;;10263223;28;20321;-69
2024/01/06 02:09:30;;;;;;;28.45;9.40;;;;;;;;;;10264242;28;20770;-69
2024/01/06 02:14:32;;;;;;;31.25;10.55;;;;;;;;;;10273157;28;20268;-68
2024/01/06 02:19:33;;;;;;;35.78;10.30;;;;;;;;;;10253204;28;20256;-69
2024/01/06 02:24:34;;;;;;;26.05;10.32;;;;;;;;;;10256669;28;20201;-69
2024/01/06 02:29:35;;;;;;;29.65;9.75;;;;;;;;;;10263446;28;20417;-69
2024/01/06 02:34:38;;;;;;;22.70;8.65;;;;;;;;;;10235608;28;20222;-69
2024/01/06 02:39:39;;;;;;;29.45;10.82;;;;;;;;;;10226312;28;20230;-68
2024/01/06 02:44:40;;;;;;;27.85;10.05;;;;;;;;;;10234934;28;20700;-69
2024/01/06 02:49:41;;;;;;;40.83;10.40;;;;;;;;;;10229094;28;20228;-69
2024/01/06 02:54:42;;;;;;;31.27;10.35;;;;;;;;;;10227649;28;20217;-69
2024/01/06 02:59:43;;;;;;;27.75;9.27;;;;;;;;;;10223729;28;20225;-69
2024/01/06 03:04:44;;;;;;;33.97;10.25;;;;;;;;;;10265836;28;20206;-69
2024/01/06 03:09:45;;;;;;;48.05;11.32;;;;;;;;;;10267606;28;20217;-69
2024/01/06 03:14:46;;;;;;;26.38;9.88;;;;;;;;;;10269242;28;20220;-69
2024/01/06 03:19:47;;;;;;;44.92;9.85;;;;;;;;;;10261678;28;20728;-69
2024/01/06 03:24:48;;;;;;;26.45;9.40;;;;;;;;;;10260713;28;20186;-69
2024/01/06 03:29:49;;;;;;;20.27;10.10;;;;;;;;;;10258823;28;20762;-68
2024/01/06 03:34:50;;;;;;;19.83;8.45;;;;;;;;;;10228703;28;20882;-69
2024/01/06 03:39:51;;;;;;;23.27;10.15;;;;;;;;;;10215689;28;20221;-69
2024/01/06 03:44:52;;;;;;;25.73;10.30;;;;;;;;;;10220265;28;20543;-69
2024/01/06 03:49:53;;;;;;;33.50;10.65;;;;;;;;;;10225545;28;20692;-69
2024/01/06 03:54:54;;;;;;;23.63;10.30;;;;;;;;;;10220226;28;20269;-69
2024/01/06 03:59:55;;;;;;;24.52;9.32;;;;;;;;;;10223158;28;20631;-69
2024/01/06 04:04:56;;;;;;;20.30;9.07;;;;;;;;;;10217979;28;20306;-69
2024/01/06 04:09:57;;;;;;;18.73;8.52;;;;;;;;;;10222758;28;20866;-68
2024/01/06 04:14:58;;;;;;;14.10;7.25;;;;;;;;;;10234535;28;20214;-69
2024/01/06 04:19:59;;;;;;;18.38;6.85;;;;;;;;;;10219092;28;20217;-68
2024/01/06 04:25:00;;;;;;;23.70;8.88;;;;;;;;;;10224004;28;20740;-69
2024/01/06 04:30:01;;;;;;;15.68;7.32;;;;;;;;;;10225103;28;20226;-69
2024/01/06 04:35:02;;;;;;;22.30;8.65;;;;;;;;;;10229417;28;20222;-69
2024/01/06 04:40:04;;;;;;;25.25;10.40;;;;;;;;;;10233915;28;20210;-68
2024/01/06 04:45:05;;;;;;;35.92;10.05;;;;;;;;;;10251206;28;20190;-69
2024/01/06 04:50:07;;;;;;;28.25;11.50;;;;;;;;;;10225142;28;20228;-69
2024/01/06 04:55:08;;;;;;;27.77;10.75;;;;;;;;;;10246649;28;20209;-69
2024/01/06 05:00:12;;;;;;;25.65;9.30;;;;;;;;;;10216873;28;20772;-69
2024/01/06 05:05:13;;;;;;;24.55;9.38;;;;;;;;;;10215383;28;20261;-68
2024/01/06 05:10:14;;;;;;;28.67;9.52;;;;;;;;;;10220203;28;20244;-68
2024/01/06 05:15:15;;;;;;;29.67;9.18;;;;;;;;;;10229171;28;20210;-69
2024/01/06 05:20:16;;;;;;;24.33;8.88;;;;;;;;;;10229782;28;20599;-69
2024/01/06 05:25:17;;;;;;;27.90;9.40;;;;;;;;;;10236051;28;20368;-68
2024/01/06 05:30:18;;;;;;;21.95;8.50;;;;;;;;;;10238433;28;20222;-69
2024/01/06 05:35:19;;;;;;;18.35;8.20;;;;;;;;;;10235285;28;20226;-68
2024/01/06 05:40:20;;;;;;;16.92;7.95;;;;;;;;;;10236070;28;20690;-69
2024/01/06 05:45:22;;;;;;;20.77;9.23;;;;;;;;;;10234282;28;20195;-69
2024/01/06 05:50:23;;;;;;;22.70;8.95;;;;;;;;;;10232544;28;20226;-69
2024/01/06 05:55:24;;;;;;;18.33;8.38;;;;;;;;;;10230332;28;20215;-69
2024/01/06 06:00:25;;;;;;;18.90;7.70;;;;;;;;;;10241365;28;20206;-69
2024/01/06 06:05:26;;;;;;;19.98;8.65;;;;;;;;;;10236940;28;20201;-69
2024/01/06 06:10:40;;;;;;;22.27;9.93;;;;;;;;;;10250147;28;20214;-68
2024/01/06 06:15:41;;;;;;;15.85;9.00;;;;;;;;;;10250727;28;20488;-68
2024/01/06 06:20:43;;;;;;;20.35;7.80;;;;;;;;;;10231998;28;20488;-69
2024/01/06 06:25:44;;;;;;;21.13;8.55;;;;;;;;;;10233761;28;20824;-68
2024/01/06 06:30:45;;;;;;;16.75;7.57;;;;;;;;;;10236761;28;20304;-69
2024/01/06 06:35:46;;;;;;;18.88;9.20;;;;;;;;;;10250916;28;20699;-68
2024/01/06 06:40:47;;;;;;;20.58;8.55;;;;;;;;;;10244710;28;20862;-68
2024/01/06 06:45:48;;;;;;;20.30;8.82;;;;;;;;;;10219519;28;20193;-69
2024/01/06 06:50:50;;;;;;;27.80;10.10;;;;;;;;;;10224988;28;20473;-69
2024/01/06 06:55:51;;;;;;;35.33;11.68;;;;;;;;;;10214832;28;20671;-69
2024/01/06 07:00:54;;;;;;;40.55;11.70;;;;;;;;;;10248291;28;20818;-69
2024/01/06 07:05:54;;;;;;;28.27;10.18;;;;;;;;;;10273563;28;20214;-69
2024/01/06 07:10:56;;;;;;;37.35;11.43;;;;;;;;;;10254309;28;20725;-69
2024/01/06 07:15:57;;;;;;;30.98;10.98;;;;;;;;;;10271785;28;20209;-69
2024/01/06 07:20:58;;;;;;;33.65;12.02;;;;;;;;;;10269718;28;20353;-69
2024/01/06 07:25:59;;;;;;;28.02;11.23;;;;;;;;;;10232644;28;20221;-69
2024/01/06 07:31:01;;;;;;;34.08;11.95;;;;;;;;;;10232456;28;20575;-68
2024/01/06 07:36:02;;;;;;;41.15;11.88;;;;;;;;;;10262182;28;20269;-70
2024/01/06 07:41:04;;;;;;;33.55;13.13;;;;;;;;;;10257421;28;20205;-68
2024/01/06 07:46:06;;;;;;;35.42;12.82;;;;;;;;;;10249641;28;20252;-70
2024/01/06 07:51:07;;;;;;;38.50;11.45;;;;;;;;;;10258458;28;20383;-70
2024/01/06 07:56:10;;;;;;;36.72;11.73;;;;;;;;;;10243262;28;20572;-70
2024/01/06 08:01:11;;;;;;;33.95;11.65;;;;;;;;;;10251339;28;20214;-70
2024/01/06 08:06:12;;;;;;;35.33;11.07;;;;;;;;;;10224298;28;20656;-69
2024/01/06 08:11:13;;;;;;;28.73;10.30;;;;;;;;;;10193286;28;20214;-69
2024/01/06 08:16:14;;;;;;;28.42;10.10;;;;;;;;;;10219330;28;20601;-69
2024/01/06 08:21:15;;;;;;;26.45;11.60;;;;;;;;;;10214228;28;20206;-69
2024/01/06 08:26:16;;;;;;;32.50;10.85;;;;;;;;;;10220775;28;20232;-69
2024/01/06 08:31:17;;;;;;;36.13;12.00;;;;;;;;;;10234068;28;20719;-69
2024/01/06 08:36:18;;;;;;;31.63;12.07;;;;;;;;;;10227049;28;20218;-70
2024/01/06 08:41:19;;;;;;;29.58;10.13;;;;;;;;;;10218883;28;20661;-69
2024/01/06 08:46:20;;;;;;;33.63;11.07;;;;;;;;;;10218901;28;20193;-70
2024/01/06 08:51:21;;;;;;;31.88;11.50;;;;;;;;;;10208389;28;20301;-70
2024/01/06 08:56:22;;;;;;;34.88;12.35;;;;;;;;;;10214726;28;20457;-69
2024/01/06 09:01:23;;;;;;;34.30;12.32;;;;;;;;;;10225422;28;20235;-69
2024/01/06 09:06:24;;;;;;;28.73;10.07;;;;;;;;;;10247159;28;20225;-69
2024/01/06 09:11:25;;;;;;;37.55;12.75;;;;;;;;;;10250902;28;20209;-69
2024/01/06 09:16:27;;;;;;;36.13;11.00;;;;;;;;;;10267047;28;20202;-70
2024/01/06 09:21:28;;;;;;;38.28;11.68;;;;;;;;;;10264964;28;20205;-69
2024/01/06 09:26:29;;;;;;;33.30;11.05;;;;;;;;;;10255565;28;20763;-69
2024/01/06 09:31:30;;;;;;;29.67;10.98;;;;;;;;;;10270097;28;20268;-69
2024/01/06 09:36:31;;;;;;;35.25;11.75;;;;;;;;;;10263587;28;20218;-70
2024/01/06 09:41:33;;;;;;;32.08;11.60;;;;;;;;;;10254400;28;20206;-69
2024/01/06 09:46:37;;;;;;;33.53;11.15;;;;;;;;;;10265071;28;20197;-69
2024/01/06 09:51:39;;;;;;;39.35;11.27;;;;;;;;;;10249789;28;20217;-69
2024/01/06 09:56:41;;;;;;;42.03;12.55;;;;;;;;;;10264310;28;20269;-69
2024/01/06 10:01:42;;;;;;;37.03;10.90;;;;;;;;;;10273203;28;20275;-69
2024/01/06 10:06:44;;;;;;;32.15;12.00;;;;;;;;;;10283921;28;20359;-70
2024/01/06 10:11:45;;;;;;;40.55;12.52;;;;;;;;;;10264445;28;20213;-70
2024/01/06 10:16:49;;;;;;;36.33;13.10;;;;;;;;;;10284639;28;20315;-70
2024/01/06 10:21:50;;;;;;;44.67;14.38;;;;;;;;;;10276776;28;20217;-70
2024/01/06 10:26:51;;;;;;;51.60;14.85;;;;;;;;;;10279869;28;20181;-70
2024/01/06 10:31:52;;;;;;;40.78;12.30;;;;;;;;;;10270085;28;20730;-70
2024/01/06 10:36:54;;;;;;;36.53;12.93;;;;;;;;;;10251589;28;20228;-69
2024/01/06 10:41:55;;;;;;;36.13;12.90;;;;;;;;;;10270450;28;20311;-69
2024/01/06 10:46:58;;;;;;;35.33;13.35;;;;;;;;;;10271012;28;20861;-69
2024/01/06 10:52:01;;;;;;;38.97;13.50;;;;;;;;;;10267515;28;20216;-69
2024/01/06 10:57:02;;;;;;;46.03;14.50;;;;;;;;;;10260948;28;20304;-69
2024/01/06 11:02:05;;;;;;;40.47;13.15;;;;;;;;;;10266315;28;20219;-70
2024/01/06 11:07:06;;;;;;;40.25;13.55;;;;;;;;;;10255560;28;20966;-70
2024/01/06 11:12:08;;;;;;;39.63;12.63;;;;;;;;;;10253986;28;20632;-70
2024/01/06 11:17:10;;;;;;;39.60;13.70;;;;;;;;;;10258993;28;20221;-70
2024/01/06 11:22:21;;;;;;;43.58;13.73;;;;;;;;;;10248735;28;20205;-69
2024/01/06 11:27:28;;;;;;;42.70;13.90;;;;;;;;;;10259329;28;20221;-68
2024/01/06 11:32:42;;;;;;;38.65;13.02;;;;;;;;;;10265802;28;20244;-69
2024/01/06 11:37:43;;;;;;;37.97;13.98;;;;;;;;;;10259434;28;20221;-69
2024/01/06 11:42:44;;;;;;;48.38;14.10;;;;;;;;;;10254917;28;20209;-68
2024/01/06 11:47:48;;;;;;;43.53;14.32;;;;;;;;;;10262551;28;20205;-68
2024/01/06 11:52:50;;;;;;;37.85;12.82;;;;;;;;;;10258631;28;20468;-69
2024/01/06 11:57:51;;;;;;;38.75;14.05;;;;;;;;;;10258052;28;20750;-70
2024/01/06 12:02:56;;;;;;;37.60;13.20;;;;;;;;;;10252614;28;20223;-70
2024/01/06 12:07:58;;;;;;;40.22;13.73;;;;;;;;;;10251244;28;21177;-69
2024/01/06 12:13:00;;;;;;;38.38;12.98;;;;;;;;;;10259431;28;20407;-68
2024/01/06 12:18:03;;;;;;;47.78;14.20;;;;;;;;;;10260615;28;20213;-69
2024/01/06 12:23:05;;;;;;;45.28;14.30;;;;;;;;;;10253844;28;20749;-69
2024/01/06 12:28:07;;;;;;;48.50;16.38;;;;;;;;;;10268020;28;20303;-69
2024/01/06 12:33:08;;;;;;;38.72;14.15;;;;;;;;;;10251445;28;20684;-70
2024/01/06 12:38:09;;;;;;;40.75;14.48;;;;;;;;;;10267243;28;20776;-69
2024/01/06 12:43:10;;;;;;;37.00;12.57;;;;;;;;;;10263230;28;20299;-69
2024/01/06 12:48:11;;;;;;;51.65;15.63;;;;;;;;;;10271688;28;20198;-68
2024/01/06 12:53:14;;;;;;;48.25;15.93;;;;;;;;;;10254420;28;20288;-69
2024/01/06 12:58:16;;;;;;;52.50;17.20;;;;;;;;;;10258376;28;20642;-69
2024/01/06 13:03:17;;;;;;;42.22;15.95;;;;;;;;;;10250875;28;20248;-69
2024/01/06 13:08:18;;;;;;;52.40;16.55;;;;;;;;;;10248276;28;20665;-69
2024/01/06 13:13:19;;;;;;;45.60;15.52;;;;;;;;;;10267028;28;20497;-68
2024/01/06 13:18:20;;;;;;;55.90;16.40;;;;;;;;;;10251539;28;20208;-69
2024/01/06 13:23:22;;;;;;;57.80;18.20;;;;;;;;;;10253761;28;20216;-69
2024/01/06 13:28:24;;;;;;;52.22;16.70;;;;;;;;;;10264057;28;20236;-69
2024/01/06 13:33:25;;;;;;;43.45;13.57;;;;;;;;;;10236001;28;20596;-68
2024/01/06 13:38:27;;;;;;;63.25;16.55;;;;;;;;;;10249634;28;20710;-69
2024/01/06 13:43:28;;;;;;;61.90;16.08;;;;;;;;;;10221185;28;20845;-69
2024/01/06 13:48:29;;;;;;;51.17;15.93;;;;;;;;;;10222633;28;20201;-69
2024/01/06 13:53:30;;;;;;;47.88;15.20;;;;;;;;;;10221168;28;20206;-69
2024/01/06 13:58:31;;;;;;;59.85;14.88;;;;;;;;;;10222737;28;20585;-69
2024/01/06 14:03:32;;;;;;;48.55;15.27;;;;;;;;;;10217788;28;20286;-69
2024/01/06 14:08:33;;;;;;;55.20;18.33;;;;;;;;;;10218671;28;20278;-69
2024/01/06 14:13:35;;;;;;;47.13;14.05;;;;;;;;;;10224911;28;20702;-69
2024/01/06 14:18:36;;;;;;;47.95;14.15;;;;;;;;;;10214446;28;20226;-69
2024/01/06 14:23:37;;;;;;;46.08;14.88;;;;;;;;;;10219502;28;20895;-69
2024/01/06 14:28:38;;;;;;;46.40;12.95;;;;;;;;;;10224033;28;20220;-71
2024/01/06 14:33:39;;;;;;;35.90;12.70;;;;;;;;;;10249962;28;20224;-69
2024/01/06 14:38:40;;;;;;;47.72;13.82;;;;;;;;;;10249442;28;20210;-69
2024/01/06 14:43:41;;;;;;;52.05;14.13;;;;;;;;;;10280436;28;20215;-69
2024/01/06 14:48:42;;;;;;;46.03;15.23;;;;;;;;;;10265564;28;20200;-69
2024/01/06 14:53:43;;;;;;;49.85;14.10;;;;;;;;;;10266949;28;20212;-69
2024/01/06 14:58:44;;;;;;;52.75;14.77;;;;;;;;;;10266113;28;20491;-69
2024/01/06 15:03:45;;;;;;;53.75;14.70;;;;;;;;;;10221486;28;20214;-70
2024/01/06 15:08:46;;;;;;;36.88;13.73;;;;;;;;;;10214025;28;20210;-69
2024/01/06 15:13:47;;;;;;;46.40;13.65;;;;;;;;;;10217100;28;20214;-69
2024/01/06 15:18:49;;;;;;;49.60;13.07;;;;;;;;;;10224425;28;20264;-69
2024/01/06 15:23:50;;;;;;;58.05;16.80;;;;;;;;;;10202091;28;20214;-70
2024/01/06 15:28:51;;;;;;;53.42;15.88;;;;;;;;;;10205953;28;20218;-69
2024/01/06 15:33:52;;;;;;;45.42;14.88;;;;;;;;;;10205824;28;20234;-69
2024/01/06 15:38:53;;;;;;;49.65;15.02;;;;;;;;;;10202016;28;20273;-69
2024/01/06 15:43:54;;;;;;;41.90;14.95;;;;;;;;;;10210394;28;20213;-69
2024/01/06 15:48:55;;;;;;;42.10;14.35;;;;;;;;;;10215114;28;20853;-69
2024/01/06 15:53:57;;;;;;;46.42;14.85;;;;;;;;;;10194608;28;20241;-69
2024/01/06 15:58:58;;;;;;;43.53;14.43;;;;;;;;;;10214329;28;20225;-69
2024/01/06 16:03:59;;;;;;;46.85;15.10;;;;;;;;;;10195647;28;20219;-69
2024/01/06 16:09:00;;;;;;;51.85;15.13;;;;;;;;;;10198664;28;20194;-69
2024/01/06 16:14:01;;;;;;;49.22;16.08;;;;;;;;;;10205992;28;20720;-69
2024/01/06 16:19:02;;;;;;;43.15;15.82;;;;;;;;;;10188476;28;20298;-69
2024/01/06 16:24:03;;;;;;;49.97;16.27;;;;;;;;;;10214680;28;20214;-69
2024/01/06 16:29:04;;;;;;;46.70;16.80;;;;;;;;;;10218342;28;20314;-69
2024/01/06 16:34:05;;;;;;;41.22;15.98;;;;;;;;;;10219279;28;20916;-69
2024/01/06 16:39:06;;;;;;;45.55;16.60;;;;;;;;;;10217072;28;20213;-69
2024/01/06 16:44:08;;;;;;;41.97;15.20;;;;;;;;;;10214780;28;20637;-69
2024/01/06 16:49:09;;;;;;;49.63;15.68;;;;;;;;;;10197554;28;20492;-68
2024/01/06 16:54:10;;;;;;;43.08;15.02;;;;;;;;;;10213455;28;20206;-69
2024/01/06 16:59:11;;;;;;;45.85;16.60;;;;;;;;;;10206067;28;20632;-68
2024/01/06 17:04:12;;;;;;;39.00;14.40;;;;;;;;;;10219486;28;20229;-68
2024/01/06 17:09:13;;;;;;;42.90;15.65;;;;;;;;;;10212142;28;20648;-68
2024/01/06 17:14:15;;;;;;;57.75;16.45;;;;;;;;;;10220763;28;20249;-68
2024/01/06 17:19:16;;;;;;;45.78;17.35;;;;;;;;;;10211817;28;20505;-69
2024/01/06 17:24:17;;;;;;;42.83;16.48;;;;;;;;;;10216403;28;20796;-68
2024/01/06 17:29:18;;;;;;;40.10;15.65;;;;;;;;;;10226946;28;20221;-69
2024/01/06 17:34:19;;;;;;;39.10;15.75;;;;;;;;;;10253253;28;20225;-68
2024/01/06 17:39:20;;;;;;;38.00;16.58;;;;;;;;;;10250041;28;20500;-68
2024/01/06 17:44:21;;;;;;;38.58;15.63;;;;;;;;;;10251598;28;20218;-68
2024/01/06 17:49:22;;;;;;;34.83;15.18;;;;;;;;;;10245762;28;20678;-69
2024/01/06 17:54:23;;;;;;;33.42;14.68;;;;;;;;;;10256712;28;20200;-68
2024/01/06 17:59:24;;;;;;;42.65;15.40;;;;;;;;;;10274441;28;20789;-68
2024/01/06 18:04:25;;;;;;;40.85;15.27;;;;;;;;;;10268767;28;20209;-68
2024/01/06 18:09:27;;;;;;;41.08;14.38;;;;;;;;;;10270543;28;20201;-68
2024/01/06 18:14:34;;;;;;;39.58;15.57;;;;;;;;;;10274676;28;20193;-68
2024/01/06 18:19:35;;;;;;;41.92;17.00;;;;;;;;;;10276429;28;20216;-68
2024/01/06 18:24:36;;;;;;;38.60;16.55;;;;;;;;;;10273726;28;20287;-68
2024/01/06 18:29:38;;;;;;;49.08;16.80;;;;;;;;;;10279412;28;20217;-69
2024/01/06 18:34:42;;;;;;;39.90;17.80;;;;;;;;;;10280300;28;20220;-68
2024/01/06 18:39:43;;;;;;;37.70;14.40;;;;;;;;;;10281512;28;20714;-68
2024/01/06 18:44:44;;;;;;;40.47;14.73;;;;;;;;;;10278625;28;20183;-69
2024/01/06 18:49:45;;;;;;;32.05;14.07;;;;;;;;;;10269396;28;21559;-68
2024/01/06 18:54:47;;;;;;;35.15;13.70;;;;;;;;;;10276960;28;20193;-68
2024/01/06 18:59:48;;;;;;;38.25;14.20;;;;;;;;;;10278113;28;20359;-68
2024/01/06 19:04:49;;;;;;;29.83;13.27;;;;;;;;;;10279474;28;20211;-68
2024/01/06 19:09:50;;;;;;;33.00;13.90;;;;;;;;;;10276458;28;20224;-68
2024/01/06 19:14:51;;;;;;;29.42;14.18;;;;;;;;;;10280619;28;20190;-68
2024/01/06 19:19:52;;;;;;;31.27;13.82;;;;;;;;;;10277495;28;20236;-68
2024/01/06 19:24:54;;;;;;;35.42;14.32;;;;;;;;;;10268076;28;20711;-68
2024/01/06 19:29:55;;;;;;;28.73;12.38;;;;;;;;;;10276320;28;20623;-68
2024/01/06 19:34:57;;;;;;;25.45;12.32;;;;;;;;;;10235685;28;20253;-69
2024/01/06 19:39:59;;;;;;;26.23;11.98;;;;;;;;;;10226657;28;20218;-69
2024/01/06 19:45:00;;;;;;;30.13;12.13;;;;;;;;;;10237502;28;20610;-69
2024/01/06 19:50:03;;;;;;;27.17;11.98;;;;;;;;;;10225274;28;20705;-69
2024/01/06 19:55:04;;;;;;;22.88;11.13;;;;;;;;;;10230472;28;20182;-70
2024/01/06 20:00:06;;;;;;;23.95;11.60;;;;;;;;;;10236591;28;20697;-69
2024/01/06 20:05:10;;;;;;;24.63;10.07;;;;;;;;;;10227683;28;20220;-69
2024/01/06 20:10:11;;;;;;;18.13;8.35;;;;;;;;;;10248867;28;20646;-69
2024/01/06 20:15:13;;;;;;;16.85;8.07;;;;;;;;;;10231192;28;20831;-69
2024/01/06 20:20:14;;;;;;;19.60;9.77;;;;;;;;;;10230086;28;20337;-69
2024/01/06 20:25:15;;;;;;;19.55;8.02;;;;;;;;;;10229690;28;20186;-69
2024/01/06 20:30:17;;;;;;;14.27;8.13;;;;;;;;;;10230208;28;20229;-69
2024/01/06 20:35:19;;;;;;;20.77;8.73;;;;;;;;;;10238419;28;20221;-69
2024/01/06 20:40:20;;;;;;;16.05;7.57;;;;;;;;;;10241902;28;20727;-68
2024/01/06 20:45:21;;;;;;;12.52;6.95;;;;;;;;;;10246259;28;20198;-69
2024/01/06 20:50:23;;;;;;;16.15;8.20;;;;;;;;;;10235848;28;20216;-69
2024/01/06 20:55:24;;;;;;;9.75;7.25;;;;;;;;;;10235366;28;20285;-69
2024/01/06 21:00:25;;;;;;;13.65;6.70;;;;;;;;;;10252081;28;20684;-68
2024/01/06 21:05:26;;;;;;;13.25;7.35;;;;;;;;;;10270058;28;20458;-71
2024/01/06 21:10:27;;;;;;;10.57;6.50;;;;;;;;;;10265148;28;20562;-70
2024/01/06 21:15:28;;;;;;;12.55;6.60;;;;;;;;;;10271242;28;20372;-70
2024/01/06 21:20:29;;;;;;;17.23;7.07;;;;;;;;;;10234818;28;20299;-71
2024/01/06 21:25:30;;;;;;;15.05;7.68;;;;;;;;;;10257247;28;20192;-71
2024/01/06 21:30:31;;;;;;;12.75;6.45;;;;;;;;;;10262777;28;20231;-68
2024/01/06 21:35:32;;;;;;;11.02;7.07;;;;;;;;;;10248888;28;20653;-69
2024/01/06 21:40:33;;;;;;;14.43;7.00;;;;;;;;;;10248028;28;20218;-71
2024/01/06 21:45:34;;;;;;;14.55;7.40;;;;;;;;;;10263754;28;20198;-70
2024/01/06 21:50:35;;;;;;;12.02;6.43;;;;;;;;;;10237849;28;20354;-69
2024/01/06 21:55:36;;;;;;;9.82;5.72;;;;;;;;;;10252128;28;20217;-68
2024/01/06 22:00:38;;;;;;;11.85;6.03;;;;;;;;;;10274577;28;20229;-70
2024/01/06 22:05:39;;;;;;;11.88;5.45;;;;;;;;;;10228770;28;20198;-69
2024/01/06 22:10:40;;;;;;;8.80;5.18;;;;;;;;;;10217530;28;20207;-70
2024/01/06 22:15:41;;;;;;;11.32;5.78;;;;;;;;;;10231844;28;20308;-70
2024/01/06 22:20:42;;;;;;;12.43;6.15;;;;;;;;;;10224663;28;20268;-70
2024/01/06 22:25:43;;;;;;;6.15;5.47;;;;;;;;;;10228791;28;20182;-70
2024/01/06 22:30:44;;;;;;;13.55;6.07;;;;;;;;;;10227472;28;20958;-70
2024/01/06 22:35:45;;;;;;;8.02;4.93;;;;;;;;;;10237028;28;20225;-70
2024/01/06 22:40:46;;;;;;;11.27;5.55;;;;;;;;;;10227055;28;20221;-71
2024/01/06 22:45:47;;;;;;;8.85;4.80;;;;;;;;;;10228272;28;20194;-71
2024/01/06 22:50:48;;;;;;;10.50;5.97;;;;;;;;;;10249824;28;20214;-70
2024/01/06 22:55:49;;;;;;;8.27;5.45;;;;;;;;;;10202664;28;20226;-71
2024/01/06 23:00:51;;;;;;;14.65;6.05;;;;;;;;;;10222054;28;20217;-69
2024/01/06 23:05:52;;;;;;;9.80;5.53;;;;;;;;;;10216827;28;20205;-70
2024/01/06 23:10:54;;;;;;;8.70;5.82;;;;;;;;;;10213014;28;20222;-68
2024/01/06 23:15:55;;;;;;;8.60;5.35;;;;;;;;;;10228662;28;20300;-68
2024/01/06 23:20:57;;;;;;;9.23;6.32;;;;;;;;;;10235778;28;20396;-68
2024/01/06 23:25:58;;;;;;;8.70;4.90;;;;;;;;;;10228124;28;20190;-68
2024/01/06 23:30:59;;;;;;;8.05;5.38;;;;;;;;;;10221788;28;20240;-68
2024/01/06 23:36:00;;;;;;;11.93;5.57;;;;;;;;;;10223055;28;20883;-68
2024/01/06 23:41:01;;;;;;;8.75;5.00;;;;;;;;;;10197794;28;20756;-67
2024/01/06 23:46:03;;;;;;;10.65;5.40;;;;;;;;;;10220992;28;20194;-68
2024/01/06 23:51:04;;;;;;;11.70;5.32;;;;;;;;;;10206321;28;20863;-68
2024/01/06 23:56:05;;;;;;;8.30;5.10;;;;;;;;;;10212145;28;20213;-68
